Time;durP1;ratioP1;P1;durP2;ratioP2;P2;SDS_P1;SDS_P2;PMS_P1;PMS_P2;Temp;Humidity;BMP_temperature;BMP_pressure;BME280_temperature;BME280_humidity;BME280_pressure;Samples;Min_cycle;Max_cycle;Signal;HPM_P1;HPM_P2
2022/06/05 00:01:04;;;;;;;4.25;1.42;;;;;;;16.13;56.10;100529.53;4941135;29;20552;-75
2022/06/05 00:03:33;;;;;;;3.33;1.90;;;;;;;16.04;56.65;100519.16;4913199;29;20028;-75
2022/06/05 00:06:13;;;;;;;3.45;1.77;;;;;;;16.11;56.67;100529.84;4927721;28;20012;-76
2022/06/05 00:08:45;;;;;;;4.47;2.05;;;;;;;16.08;56.82;100519.41;4929293;29;20031;-75
2022/06/05 00:11:13;;;;;;;3.65;1.95;;;;;;;15.93;56.69;100501.16;4923003;29;20463;-77
2022/06/05 00:13:52;;;;;;;3.83;2.00;;;;;;;16.00;56.95;100512.66;4906035;29;20051;-75
2022/06/05 00:16:25;;;;;;;4.40;1.70;;;;;;;15.92;57.06;100505.03;4922500;29;20028;-77
2022/06/05 00:18:51;;;;;;;5.63;1.90;;;;;;;15.88;57.33;100493.78;4942321;29;20027;-75
2022/06/05 00:21:17;;;;;;;4.80;2.00;;;;;;;15.82;57.83;100492.22;4933163;29;20468;-76
2022/06/05 00:23:44;;;;;;;4.47;2.10;;;;;;;15.71;57.83;100479.69;4913407;29;20031;-76
2022/06/05 00:26:41;;;;;;;3.25;1.80;;;;;;;15.67;57.68;100478.66;4940816;29;20024;-74
2022/06/05 00:29:48;;;;;;;5.57;2.13;;;;;;;15.58;57.69;100480.44;4919375;29;20039;-75
2022/06/05 00:32:38;;;;;;;4.25;2.08;;;;;;;15.41;57.82;100479.03;4875308;29;20043;-75
2022/06/05 00:35:09;;;;;;;3.33;2.10;;;;;;;15.25;58.38;100458.31;4929736;29;20074;-77
2022/06/05 00:37:41;;;;;;;5.72;2.05;;;;;;;15.26;57.97;100466.28;4901561;29;20036;-78
2022/06/05 00:40:25;;;;;;;5.90;1.70;;;;;;;15.16;58.58;100466.44;4915223;29;20035;-78
2022/06/05 00:42:51;;;;;;;2.92;1.73;;;;;;;15.05;58.61;100467.66;4937613;29;20070;-77
2022/06/05 00:45:17;;;;;;;3.92;2.13;;;;;;;14.95;58.55;100465.84;4932412;29;20063;-78
2022/06/05 00:47:44;;;;;;;3.55;1.70;;;;;;;14.91;58.28;100460.13;4939297;29;20047;-78
2022/06/05 00:50:15;;;;;;;2.35;1.63;;;;;;;14.93;59.04;100457.88;4921171;29;20049;-79
2022/06/05 00:52:45;;;;;;;2.25;1.65;;;;;;;14.91;58.48;100454.63;4938708;29;20032;-78
2022/06/05 00:55:12;;;;;;;2.65;1.75;;;;;;;14.88;58.85;100448.88;4924191;29;20047;-77
2022/06/05 00:57:38;;;;;;;3.25;1.90;;;;;;;14.80;59.29;100442.91;4923653;29;20058;-79
2022/06/05 01:00:14;;;;;;;3.65;2.10;;;;;;;14.74;59.45;100427.56;4932365;29;20051;-78
2022/06/05 01:02:42;;;;;;;4.25;1.90;;;;;;;14.78;59.47;100423.13;4943358;29;20075;-78
2022/06/05 01:05:10;;;;;;;6.65;2.72;;;;;;;14.84;59.64;100416.44;4922071;29;20434;-79
2022/06/05 01:07:36;;;;;;;3.45;2.05;;;;;;;14.83;59.08;100413.97;4920910;29;20028;-76
2022/06/05 01:10:05;;;;;;;4.78;2.20;;;;;;;14.75;59.60;100407.19;4924662;29;20034;-76
2022/06/05 01:12:44;;;;;;;4.53;2.25;;;;;;;14.64;59.88;100411.19;4892994;29;20039;-78
2022/06/05 01:15:20;;;;;;;3.92;2.38;;;;;;;14.61;59.87;100412.56;4937540;29;20027;-78
2022/06/05 01:18:10;;;;;;;5.18;2.20;;;;;;;14.51;60.44;100400.84;4925750;29;20167;-78
2022/06/05 01:21:09;;;;;;;5.93;2.60;;;;;;;14.42;61.29;100387.72;4905454;29;20033;-78
2022/06/05 01:24:03;;;;;;;4.13;2.33;;;;;;;14.43;60.78;100392.13;4925706;29;20024;-79
2022/06/05 01:26:38;;;;;;;3.70;2.13;;;;;;;14.44;60.72;100379.19;4937925;29;20031;-79
2022/06/05 01:29:11;;;;;;;4.25;2.03;;;;;;;14.33;61.63;100373.00;4925751;29;20028;-78
2022/06/05 01:31:45;;;;;;;7.47;2.53;;;;;;;14.36;61.87;100375.16;4922681;29;20051;-79
2022/06/05 01:34:33;;;;;;;4.45;2.65;;;;;;;14.34;62.67;100385.63;4940371;28;20047;-78
2022/06/05 01:37:24;;;;;;;5.82;2.35;;;;;;;14.26;62.67;100389.03;4939134;29;20058;-80
2022/06/05 01:39:58;;;;;;;3.83;2.17;;;;;;;14.12;62.84;100381.47;4922642;29;20107;-77
2022/06/05 01:42:47;;;;;;;4.55;2.03;;;;;;;14.11;63.43;100393.56;4933241;29;20032;-78
2022/06/05 01:45:31;;;;;;;5.28;2.42;;;;;;;14.12;63.76;100400.72;4923438;29;20055;-77
2022/06/05 01:47:59;;;;;;;3.70;2.30;;;;;;;14.07;63.27;100392.50;4935412;29;20067;-78
2022/06/05 01:50:37;;;;;;;4.93;2.35;;;;;;;14.03;63.66;100393.38;4918002;29;20051;-77
2022/06/05 01:53:29;;;;;;;4.78;2.45;;;;;;;13.97;63.61;100387.09;4916695;29;20024;-76
2022/06/05 01:55:55;;;;;;;5.70;2.22;;;;;;;13.96;63.91;100393.75;4934600;29;20039;-76
2022/06/05 01:58:26;;;;;;;9.07;2.92;;;;;;;13.98;64.25;100394.25;4945147;29;20123;-77
2022/06/05 02:00:57;;;;;;;7.85;2.97;;;;;;;14.02;63.93;100383.47;4942841;29;20027;-76
2022/06/05 02:03:31;;;;;;;3.83;2.05;;;;;;;13.95;63.95;100379.16;4927807;29;20070;-76
2022/06/05 02:06:11;;;;;;;5.05;2.67;;;;;;;13.88;64.37;100384.16;4913849;29;20113;-76
2022/06/05 02:08:48;;;;;;;6.70;2.92;;;;;;;13.81;64.70;100382.88;4927057;29;20035;-76
2022/06/05 02:11:27;;;;;;;2.22;1.70;;;;;;;13.81;64.31;100389.16;4927423;29;20039;-79
2022/06/05 02:14:03;;;;;;;2.95;2.20;;;;;;;13.74;64.63;100384.03;4919786;29;22268;-77
2022/06/05 02:16:30;;;;;;;4.65;2.40;;;;;;;13.74;64.59;100389.53;4936735;29;20043;-80
2022/06/05 02:19:01;;;;;;;4.18;2.25;;;;;;;13.74;65.00;100394.19;4930303;29;20024;-80
2022/06/05 02:21:27;;;;;;;3.45;2.10;;;;;;;13.84;64.91;100393.28;4938306;29;20027;-76
2022/06/05 02:23:53;;;;;;;6.55;2.80;;;;;;;13.84;65.12;100382.28;4892664;29;20123;-78
2022/06/05 02:26:19;;;;;;;5.32;2.50;;;;;;;13.88;65.08;100388.84;4938653;29;20385;-76
2022/06/05 02:28:45;;;;;;;4.82;2.42;;;;;;;13.87;65.00;100396.28;4919653;29;20040;-77
2022/06/05 02:31:16;;;;;;;5.95;2.70;;;;;;;13.84;64.66;100398.78;4943971;29;20035;-78
2022/06/05 02:33:52;;;;;;;4.07;2.40;;;;;;;13.80;64.72;100401.31;4923290;29;20028;-78
2022/06/05 02:36:49;;;;;;;4.13;2.50;;;;;;;13.74;64.79;100406.00;4926679;29;20123;-77
2022/06/05 02:39:30;;;;;;;3.33;1.88;;;;;;;13.67;65.75;100411.00;4923548;29;20058;-77
2022/06/05 02:41:55;;;;;;;7.93;2.13;;;;;;;13.63;65.70;100414.63;4923588;29;20024;-77
2022/06/05 02:44:40;;;;;;;3.80;2.58;;;;;;;13.55;65.67;100405.06;4915889;29;20055;-76
2022/06/05 02:47:30;;;;;;;4.90;2.10;;;;;;;13.51;65.64;100404.00;4930414;29;20024;-77
2022/06/05 02:50:10;;;;;;;4.35;2.40;;;;;;;13.53;66.52;100394.34;4935053;29;20467;-78
2022/06/05 02:52:36;;;;;;;6.18;3.00;;;;;;;13.50;66.54;100385.88;4931953;29;20554;-78
2022/06/05 02:55:07;;;;;;;6.63;3.55;;;;;;;13.48;66.90;100388.06;4909092;29;20031;-79
2022/06/05 02:57:34;;;;;;;9.13;3.50;;;;;;;13.51;67.29;100396.56;4934127;29;20031;-76
2022/06/05 03:00:00;;;;;;;6.85;2.85;;;;;;;13.51;67.30;100415.81;4944220;29;20038;-76
2022/06/05 03:05:09;;;;;;;7.80;2.70;;;;;;;13.42;67.75;100415.59;4941739;29;20485;-77
2022/06/05 03:07:35;;;;;;;5.82;3.55;;;;;;;13.38;68.54;100409.03;4928093;29;20279;-78
2022/06/05 03:10:01;;;;;;;7.07;3.47;;;;;;;13.34;68.39;100402.47;4921953;29;20061;-78
2022/06/05 03:12:27;;;;;;;6.38;3.05;;;;;;;13.29;69.13;100396.97;4929718;29;20482;-77
2022/06/05 03:14:56;;;;;;;3.35;2.60;;;;;;;13.28;68.93;100398.06;4937078;29;20042;-78
2022/06/05 03:17:24;;;;;;;4.40;2.70;;;;;;;13.24;69.26;100381.38;4902241;29;20088;-77
2022/06/05 03:19:50;;;;;;;4.13;2.55;;;;;;;13.20;69.09;100369.31;4940663;29;20027;-77
2022/06/05 03:22:15;;;;;;;5.72;2.90;;;;;;;13.22;69.78;100369.03;4927038;29;20059;-77
2022/06/05 03:24:40;;;;;;;3.92;2.50;;;;;;;13.23;69.47;100370.66;4930219;29;20031;-77
2022/06/05 03:27:06;;;;;;;6.35;3.13;;;;;;;13.19;70.06;100366.84;4922416;29;20123;-77
2022/06/05 03:29:32;;;;;;;6.88;3.20;;;;;;;13.10;70.39;100359.19;4923399;29;20470;-75
2022/06/05 03:31:57;;;;;;;7.88;3.17;;;;;;;13.12;70.92;100355.34;4908505;29;20613;-77
2022/06/05 03:34:23;;;;;;;4.00;2.63;;;;;;;13.10;70.78;100363.88;4910369;29;20032;-77
2022/06/05 03:36:48;;;;;;;5.28;2.92;;;;;;;13.07;71.22;100362.53;4886927;29;20447;-76
2022/06/05 03:39:14;;;;;;;4.85;2.70;;;;;;;13.06;70.45;100358.13;4922929;29;20047;-77
2022/06/05 03:41:40;;;;;;;3.78;2.33;;;;;;;13.10;71.12;100363.88;4908359;29;20479;-77
2022/06/05 03:44:05;;;;;;;3.67;2.38;;;;;;;13.08;71.19;100357.84;4934921;29;20047;-77
2022/06/05 03:46:35;;;;;;;3.45;2.50;;;;;;;13.10;71.24;100358.38;4919975;29;20043;-78
2022/06/05 03:49:00;;;;;;;3.22;2.40;;;;;;;13.09;70.87;100352.06;4938069;29;20038;-77
2022/06/05 03:51:26;;;;;;;8.13;3.00;;;;;;;13.10;71.02;100342.72;4896046;29;20035;-78
2022/06/05 03:53:51;;;;;;;3.75;2.22;;;;;;;13.12;70.57;100345.19;4912019;29;20041;-76
2022/06/05 03:56:22;;;;;;;2.53;2.13;;;;;;;13.17;71.27;100345.16;4917340;29;20043;-78
2022/06/05 03:58:49;;;;;;;3.78;2.53;;;;;;;13.13;71.24;100359.72;4930854;29;20032;-78
2022/06/05 04:01:18;;;;;;;4.65;2.38;;;;;;;13.08;71.27;100366.06;4917756;29;20056;-76
2022/06/05 04:03:44;;;;;;;3.85;2.33;;;;;;;13.05;71.32;100366.66;4937456;29;20054;-77
2022/06/05 04:06:12;;;;;;;6.10;1.92;;;;;;;13.03;71.17;100358.69;4904980;29;20124;-76
2022/06/05 04:08:40;;;;;;;6.32;2.75;;;;;;;12.96;72.35;100338.97;4919062;29;20085;-77
2022/06/05 04:11:11;;;;;;;5.45;2.72;;;;;;;12.96;72.30;100341.72;4907490;29;20051;-76
2022/06/05 04:13:37;;;;;;;5.88;2.80;;;;;;;12.88;72.46;100345.09;4921408;29;20024;-76
2022/06/05 04:16:10;;;;;;;5.65;3.28;;;;;;;12.88;72.24;100372.53;4915588;29;20405;-76
2022/06/05 04:18:35;;;;;;;4.70;3.13;;;;;;;12.79;72.62;100364.06;4924916;29;20031;-76
2022/06/05 04:21:06;;;;;;;6.68;3.78;;;;;;;12.74;73.22;100356.66;4922860;29;20039;-77
2022/06/05 04:23:31;;;;;;;9.20;4.28;;;;;;;12.66;72.79;100349.03;4924383;29;20063;-76
2022/06/05 04:25:57;;;;;;;10.93;4.28;;;;;;;12.65;73.63;100352.88;4905927;29;20032;-77
2022/06/05 04:28:23;;;;;;;5.50;4.10;;;;;;;12.64;73.61;100350.41;4906794;29;20503;-76
2022/06/05 04:30:49;;;;;;;6.07;3.50;;;;;;;12.56;73.35;100340.84;4919093;29;20032;-74
2022/06/05 04:33:16;;;;;;;5.15;3.75;;;;;;;12.66;73.77;100360.00;4910628;29;20044;-75
2022/06/05 04:35:41;;;;;;;6.78;3.80;;;;;;;12.67;74.15;100345.16;4914858;29;20059;-75
2022/06/05 04:38:07;;;;;;;6.07;3.63;;;;;;;12.62;74.32;100320.50;4923963;29;20040;-76
2022/06/05 04:40:32;;;;;;;5.78;3.83;;;;;;;12.69;74.38;100321.03;4937350;28;20024;-75
2022/06/05 04:42:58;;;;;;;6.40;3.38;;;;;;;12.78;73.75;100325.94;4895626;29;20035;-76
2022/06/05 04:45:25;;;;;;;5.95;3.22;;;;;;;12.80;73.29;100327.28;4910982;29;20053;-76
2022/06/05 04:47:51;;;;;;;5.20;3.53;;;;;;;12.79;73.66;100330.28;4915611;29;20028;-77
2022/06/05 04:50:16;;;;;;;4.68;3.25;;;;;;;12.87;73.21;100327.78;4903430;29;20048;-75
2022/06/05 04:52:42;;;;;;;6.20;3.80;;;;;;;12.92;73.54;100351.63;4874992;29;20032;-76
2022/06/05 04:55:08;;;;;;;5.57;3.50;;;;;;;12.98;72.87;100350.50;4887933;29;20044;-77
2022/06/05 04:57:34;;;;;;;6.13;2.97;;;;;;;12.96;72.93;100347.22;4899290;29;20072;-75
2022/06/05 05:00:00;;;;;;;6.30;3.50;;;;;;;12.94;72.95;100349.44;4902935;29;20059;-75
2022/06/05 05:02:26;;;;;;;4.60;3.08;;;;;;;12.86;72.96;100348.09;4905294;29;20483;-77
2022/06/05 05:04:51;;;;;;;4.72;2.60;;;;;;;12.85;73.43;100356.59;4905287;29;20032;-75
2022/06/05 05:07:17;;;;;;;5.60;2.92;;;;;;;12.79;73.55;100355.84;4890569;29;20399;-76
2022/06/05 05:09:43;;;;;;;5.75;3.25;;;;;;;12.77;73.77;100332.50;4910311;29;20515;-76
2022/06/05 05:12:11;;;;;;;3.72;2.95;;;;;;;12.86;73.97;100336.28;4910564;29;20039;-75
2022/06/05 05:14:39;;;;;;;3.70;2.83;;;;;;;12.85;74.05;100323.66;4910515;29;20428;-73
2022/06/05 05:17:05;;;;;;;3.92;2.90;;;;;;;13.04;73.35;100338.38;4917167;29;20040;-73
2022/06/05 05:19:31;;;;;;;4.15;2.50;;;;;;;13.03;73.48;100331.25;4901441;29;20032;-74
2022/06/05 05:21:57;;;;;;;4.07;2.65;;;;;;;13.20;72.99;100341.00;4904470;29;20078;-74
2022/06/05 05:24:22;;;;;;;4.70;2.17;;;;;;;13.19;72.84;100333.91;4883828;29;20589;-73
2022/06/05 05:26:48;;;;;;;2.67;2.25;;;;;;;13.34;72.40;100355.75;4908999;29;20036;-74
2022/06/05 05:29:13;;;;;;;3.63;2.15;;;;;;;13.20;72.67;100347.34;4901641;29;20051;-75
2022/06/05 05:31:44;;;;;;;3.28;2.00;;;;;;;13.20;72.90;100350.09;4916186;29;20039;-75
2022/06/05 05:34:10;;;;;;;1.90;1.50;;;;;;;13.21;73.04;100365.44;4902833;29;20040;-74
2022/06/05 05:36:36;;;;;;;2.15;1.88;;;;;;;13.24;73.16;100375.03;4909480;29;20039;-74
2022/06/05 05:42:04;;;;;;;3.38;2.22;;;;;;;13.17;72.78;100374.53;4903717;29;20065;-73
2022/06/05 05:44:51;;;;;;;2.38;1.80;;;;;;;13.20;72.96;100385.78;4911529;28;20115;-74
2022/06/05 05:47:23;;;;;;;3.00;1.58;;;;;;;13.22;72.17;100388.25;4922694;29;20028;-73
2022/06/05 05:49:53;;;;;;;2.35;1.80;;;;;;;13.23;72.76;100398.13;4933478;29;20544;-72
2022/06/05 05:52:19;;;;;;;3.67;1.40;;;;;;;13.21;72.15;100397.56;4922517;29;20035;-72
2022/06/05 05:54:44;;;;;;;1.40;1.30;;;;;;;13.22;72.65;100396.47;4927265;29;20062;-72
2022/06/05 05:57:10;;;;;;;1.35;1.25;;;;;;;13.17;72.66;100389.09;4931969;29;20698;-73
2022/06/05 05:59:36;;;;;;;1.45;1.35;;;;;;;13.21;72.58;100386.59;4911647;29;20047;-74
2022/06/05 06:02:02;;;;;;;2.28;1.45;;;;;;;13.26;72.14;100395.63;4920204;29;20031;-75
2022/06/05 06:04:28;;;;;;;1.33;1.20;;;;;;;13.21;72.83;100397.56;4919013;29;20028;-75
2022/06/05 06:06:54;;;;;;;1.48;1.38;;;;;;;13.24;72.72;100403.34;4896622;29;20475;-74
2022/06/05 06:09:23;;;;;;;1.50;1.20;;;;;;;13.25;72.55;100401.41;4919076;29;20525;-74
2022/06/05 06:11:48;;;;;;;1.63;1.20;;;;;;;13.23;72.51;100400.88;4901227;29;20035;-74
2022/06/05 06:14:14;;;;;;;3.90;1.42;;;;;;;13.22;72.27;100404.72;4897694;29;20389;-74
2022/06/05 06:16:39;;;;;;;1.55;1.30;;;;;;;13.20;72.51;100413.25;4934167;29;20028;-73
2022/06/05 06:19:05;;;;;;;1.00;0.90;;;;;;;13.21;72.42;100414.84;4901812;29;20047;-72
2022/06/05 06:21:31;;;;;;;1.15;1.02;;;;;;;13.25;72.96;100420.63;4905190;29;20497;-75
2022/06/05 06:23:56;;;;;;;1.08;0.95;;;;;;;13.36;72.63;100432.38;4904876;29;20024;-73
2022/06/05 06:26:22;;;;;;;1.10;0.90;;;;;;;13.39;71.94;100427.16;4919138;29;20031;-74
2022/06/05 06:28:47;;;;;;;2.63;1.05;;;;;;;13.40;72.07;100428.81;4901257;29;20035;-73
2022/06/05 06:31:16;;;;;;;0.95;0.85;;;;;;;13.41;71.73;100435.91;4885604;29;20055;-74
2022/06/05 06:33:41;;;;;;;1.23;0.90;;;;;;;13.53;71.75;100451.22;4923380;29;20459;-73
2022/06/05 06:36:10;;;;;;;0.80;0.80;;;;;;;13.54;71.81;100444.66;4922384;29;20043;-74
2022/06/05 06:38:36;;;;;;;1.50;0.90;;;;;;;13.53;71.94;100443.00;4926144;29;20033;-73
2022/06/05 06:41:05;;;;;;;1.38;1.17;;;;;;;13.49;71.79;100439.16;4906255;29;20031;-73
2022/06/05 06:43:31;;;;;;;1.00;1.00;;;;;;;13.49;71.52;100444.66;4925747;29;20023;-75
2022/06/05 06:45:56;;;;;;;0.70;0.70;;;;;;;13.53;71.84;100441.06;4907884;29;20165;-73
2022/06/05 06:48:22;;;;;;;0.60;0.60;;;;;;;13.59;71.65;100450.09;4902421;29;20071;-73
2022/06/05 06:50:48;;;;;;;0.93;0.85;;;;;;;13.67;71.15;100454.97;4923494;29;20028;-72
2022/06/05 06:53:13;;;;;;;1.70;0.80;;;;;;;13.70;71.03;100454.41;4926637;29;20053;-75
2022/06/05 06:55:39;;;;;;;1.15;0.65;;;;;;;13.73;70.96;100459.31;4927499;29;20043;-75
2022/06/05 06:58:05;;;;;;;1.85;0.60;;;;;;;13.79;70.74;100455.44;4922028;29;20486;-75
2022/06/05 07:00:30;;;;;;;0.50;0.50;;;;;;;13.79;70.52;100452.69;4932268;29;20083;-75
2022/06/05 07:02:55;;;;;;;0.60;0.60;;;;;;;13.89;70.59;100438.03;4906979;29;20080;-74
2022/06/05 07:05:24;;;;;;;0.50;0.50;;;;;;;14.06;69.98;100450.53;4894090;29;20032;-75
2022/06/05 07:07:49;;;;;;;0.50;0.50;;;;;;;14.13;70.22;100434.53;4925966;29;20034;-75
2022/06/05 07:10:14;;;;;;;0.55;0.55;;;;;;;14.23;69.73;100433.63;4909195;29;20454;-73
2022/06/05 07:12:40;;;;;;;1.00;0.80;;;;;;;14.29;69.17;100419.53;4922008;29;20125;-74
2022/06/05 07:15:07;;;;;;;0.73;0.57;;;;;;;14.48;69.02;100425.09;4903697;29;20051;-73
2022/06/05 07:17:33;;;;;;;0.90;0.70;;;;;;;14.69;68.39;100424.88;4925442;29;20024;-74
2022/06/05 07:20:01;;;;;;;1.02;0.65;;;;;;;14.84;68.28;100421.13;4923294;29;20036;-76
2022/06/05 07:22:27;;;;;;;0.60;0.60;;;;;;;15.07;67.52;100424.97;4908224;29;20095;-76
2022/06/05 07:24:53;;;;;;;0.82;0.63;;;;;;;15.27;66.99;100417.50;4896065;29;20028;-73
2022/06/05 07:27:19;;;;;;;0.60;0.60;;;;;;;15.47;66.50;100411.69;4908512;29;20019;-73
2022/06/05 07:29:44;;;;;;;0.75;0.70;;;;;;;15.51;65.80;100396.19;4915454;29;20035;-74
2022/06/05 07:32:11;;;;;;;1.50;0.80;;;;;;;15.64;65.35;100397.38;4904396;29;20035;-74
2022/06/05 07:34:37;;;;;;;0.80;0.80;;;;;;;15.74;64.90;100393.66;4918508;29;20047;-73
2022/06/05 07:37:03;;;;;;;1.45;1.00;;;;;;;15.87;64.78;100401.16;4930911;29;20406;-74
2022/06/05 07:39:41;;;;;;;;;;;;;;;;;;;;;
2022/06/05 07:42:14;;;;;;;1.35;0.98;;;;;;;16.04;64.14;100402.53;4915772;29;20103;-76
2022/06/05 07:44:41;;;;;;;3.13;1.10;;;;;;;16.11;63.62;100397.44;4931300;29;20139;-75
2022/06/05 07:47:11;;;;;;;1.58;1.08;;;;;;;16.20;63.37;100400.31;4929919;29;20493;-73
2022/06/05 07:49:40;;;;;;;2.60;1.17;;;;;;;16.34;63.23;100400.31;4934357;29;20367;-74
2022/06/05 07:54:55;;;;;;;1.02;0.73;;;;;;;16.46;62.35;100386.84;4932206;29;20019;-73
2022/06/05 07:57:21;;;;;;;1.40;0.90;;;;;;;16.58;62.54;100386.31;4916127;29;20032;-76
2022/06/05 07:59:48;;;;;;;0.93;0.82;;;;;;;16.75;61.95;100400.31;4933511;29;20360;-75
2022/06/05 08:02:23;;;;;;;1.48;1.10;;;;;;;16.74;61.98;100387.63;4934375;29;20036;-74
2022/06/05 08:04:55;;;;;;;1.00;0.85;;;;;;;16.94;61.93;100391.13;4927928;29;20028;-73
2022/06/05 08:07:31;;;;;;;2.40;1.13;;;;;;;17.13;61.03;100381.84;4912399;29;20047;-73
2022/06/05 08:10:08;;;;;;;2.22;1.40;;;;;;;17.12;60.86;100356.19;4930901;29;20032;-73
2022/06/05 08:12:35;;;;;;;1.48;1.15;;;;;;;17.45;60.36;100359.53;4919157;29;20044;-73
2022/06/05 08:15:12;;;;;;;1.60;1.20;;;;;;;17.69;59.55;100377.75;4902354;29;20034;-73
2022/06/05 08:17:40;;;;;;;1.52;1.10;;;;;;;17.80;59.33;100368.06;4930776;29;20035;-74
2022/06/05 08:20:11;;;;;;;1.80;1.33;;;;;;;17.87;59.08;100356.56;4918714;29;20114;-73
2022/06/05 08:22:37;;;;;;;2.72;1.30;;;;;;;18.00;59.07;100359.56;4930780;29;20034;-74
2022/06/05 08:25:05;;;;;;;1.35;1.00;;;;;;;18.10;58.57;100360.09;4934459;29;20027;-75
2022/06/05 08:27:31;;;;;;;2.95;2.00;;;;;;;18.20;58.53;100361.78;4920177;29;20036;-73
2022/06/05 08:29:57;;;;;;;3.50;1.52;;;;;;;18.36;58.35;100366.91;4902286;29;20095;-74
2022/06/05 08:32:25;;;;;;;3.95;1.40;;;;;;;18.43;57.77;100361.72;4936609;29;20047;-74
2022/06/05 08:34:51;;;;;;;2.08;1.58;;;;;;;18.40;57.92;100373.41;4940413;29;20023;-74
2022/06/05 08:43:29;;;;;;;2.42;1.50;;;;;;;18.30;58.04;100367.03;4921630;29;20034;-75
2022/06/05 08:45:57;;;;;;;1.67;1.25;;;;;;;18.55;57.59;100364.69;4927435;29;20055;-76
2022/06/05 08:48:28;;;;;;;3.03;1.85;;;;;;;19.00;55.97;100364.47;4909604;29;20103;-70
2022/06/05 08:51:01;;;;;;;3.35;1.75;;;;;;;19.48;54.99;100375.75;4914124;29;20087;-75
2022/06/05 08:53:45;;;;;;;3.65;2.40;;;;;;;19.60;54.56;100373.09;4916220;29;20036;-74
2022/06/05 08:56:31;;;;;;;2.88;1.70;;;;;;;19.64;54.24;100364.94;4914734;29;20055;-72
2022/06/05 08:59:58;;;;;;;2.88;1.95;;;;;;;19.91;53.77;100374.06;4907870;29;20718;-75
2022/06/05 09:02:34;;;;;;;3.70;1.98;;;;;;;20.37;52.61;100364.91;4824806;29;20029;-71
2022/06/05 09:05:08;;;;;;;3.05;1.88;;;;;;;21.13;51.60;100372.66;4821029;29;20482;-71
2022/06/05 09:07:59;;;;;;;3.25;1.92;;;;;;;21.86;50.24;100376.91;4886354;29;20758;-74
2022/06/05 09:10:35;;;;;;;2.05;1.52;;;;;;;21.97;49.28;100370.56;4914478;29;20052;-73
2022/06/05 09:13:13;;;;;;;3.63;2.50;;;;;;;21.98;48.41;100374.19;4911235;29;20047;-72
2022/06/05 09:15:57;;;;;;;3.33;2.17;;;;;;;21.76;48.90;100367.84;4922002;29;20835;-72
2022/06/05 09:18:29;;;;;;;1.60;1.20;;;;;;;21.77;49.37;100366.72;4924151;29;20055;-72
2022/06/05 09:21:30;;;;;;;2.55;1.55;;;;;;;21.93;49.25;100357.69;4921880;29;20030;-71
2022/06/05 09:24:02;;;;;;;2.40;1.63;;;;;;;22.16;47.97;100362.84;4918447;29;20067;-72
2022/06/05 09:26:41;;;;;;;1.27;1.17;;;;;;;22.35;48.42;100371.47;4922298;29;20055;-72
2022/06/05 09:29:09;;;;;;;2.05;1.30;;;;;;;22.42;48.13;100377.28;4917049;29;20088;-70
2022/06/05 09:31:59;;;;;;;2.83;2.00;;;;;;;22.34;48.16;100372.66;4918086;29;20395;-72
2022/06/05 09:34:28;;;;;;;1.95;1.52;;;;;;;22.27;47.72;100358.44;4917173;29;20487;-73
2022/06/05 09:37:21;;;;;;;2.10;1.58;;;;;;;22.40;47.58;100373.19;4921059;29;20016;-71
2022/06/05 09:39:54;;;;;;;1.73;1.35;;;;;;;22.40;47.40;100370.41;4915207;29;20027;-71
2022/06/05 09:42:41;;;;;;;1.60;1.50;;;;;;;22.67;47.52;100378.06;4919019;29;20064;-72
2022/06/05 09:45:23;;;;;;;1.88;1.42;;;;;;;22.93;46.39;100374.09;4924670;29;20083;-71
2022/06/05 09:48:04;;;;;;;4.13;2.22;;;;;;;23.07;45.99;100368.16;4931111;29;21089;-71
2022/06/05 09:50:30;;;;;;;2.78;1.65;;;;;;;23.02;45.42;100365.59;4924634;29;20089;-72
2022/06/05 09:53:03;;;;;;;3.03;1.52;;;;;;;23.20;45.20;100365.34;4933216;29;20708;-70
2022/06/05 09:55:43;;;;;;;1.95;1.48;;;;;;;23.14;45.24;100384.31;4903181;29;20028;-71
2022/06/05 09:58:27;;;;;;;2.05;1.75;;;;;;;23.10;45.62;100389.78;4924812;28;20091;-73
2022/06/05 10:00:59;;;;;;;2.50;1.75;;;;;;;23.17;45.17;100384.44;4920908;29;20467;-71
2022/06/05 10:03:37;;;;;;;4.55;1.23;;;;;;;23.01;45.03;100389.91;4922235;29;20036;-72
2022/06/05 10:06:23;;;;;;;3.13;2.63;;;;;;;22.86;44.99;100389.81;4936771;29;20050;-72
2022/06/05 10:09:06;;;;;;;3.65;2.67;;;;;;;22.63;44.61;100387.50;4937007;29;20037;-72
2022/06/05 10:12:10;;;;;;;5.50;2.88;;;;;;;22.26;45.58;100391.03;4938308;29;20039;-71
2022/06/05 10:14:55;;;;;;;2.83;2.40;;;;;;;21.73;45.98;100384.44;4929280;29;20028;-70
2022/06/05 10:17:36;;;;;;;2.45;2.10;;;;;;;21.51;46.97;100391.16;4933322;29;20035;-70
2022/06/05 10:20:04;;;;;;;2.55;2.35;;;;;;;21.67;47.06;100397.75;4934087;28;20034;-71
2022/06/05 10:22:32;;;;;;;2.90;2.28;;;;;;;21.43;47.47;100382.53;4935943;29;20019;-72
2022/06/05 10:25:00;;;;;;;2.47;1.90;;;;;;;21.31;47.53;100382.47;4939692;29;20043;-71
2022/06/05 10:27:26;;;;;;;4.38;2.67;;;;;;;21.25;47.71;100373.53;4926939;29;20032;-73
2022/06/05 10:29:56;;;;;;;5.28;2.45;;;;;;;21.32;47.88;100381.34;4931306;29;20034;-72
2022/06/05 10:32:24;;;;;;;2.13;1.90;;;;;;;21.74;47.59;100372.97;4939235;29;20050;-72
2022/06/05 10:34:56;;;;;;;1.25;1.15;;;;;;;22.56;46.49;100387.25;4944915;29;20397;-73
2022/06/05 10:37:37;;;;;;;3.10;1.80;;;;;;;23.23;45.07;100387.78;4935622;29;20039;-72
2022/06/05 10:40:28;;;;;;;2.83;2.10;;;;;;;23.54;44.04;100375.13;4930695;28;20471;-70
2022/06/05 10:43:01;;;;;;;2.05;1.20;;;;;;;23.70;43.59;100386.34;4931224;29;20066;-73
2022/06/05 10:45:48;;;;;;;1.42;1.17;;;;;;;23.65;43.92;100389.38;4932623;29;20047;-72
2022/06/05 10:48:48;;;;;;;4.50;1.90;;;;;;;23.72;44.30;100386.78;4936217;28;20082;-72
2022/06/05 10:51:32;;;;;;;1.50;1.40;;;;;;;23.69;43.55;100393.06;4916873;29;20107;-70
2022/06/05 10:54:23;;;;;;;3.13;2.38;;;;;;;23.82;43.65;100389.06;4936330;29;20032;-70
2022/06/05 10:56:58;;;;;;;2.40;1.95;;;;;;;23.83;42.96;100387.91;4938326;29;20055;-72
2022/06/05 10:59:59;;;;;;;2.53;1.50;;;;;;;24.04;42.56;100381.28;4942060;29;20031;-72
2022/06/05 11:02:47;;;;;;;1.75;1.27;;;;;;;23.99;42.55;100373.16;4934699;29;20019;-73
2022/06/05 11:05:44;;;;;;;2.92;2.00;;;;;;;23.84;43.30;100389.50;4935430;29;20024;-72
2022/06/05 11:08:35;;;;;;;2.67;1.95;;;;;;;23.63;43.21;100384.16;4922363;29;20431;-73
2022/06/05 11:14:40;;;;;;;3.05;2.15;;;;;;;23.33;43.73;100389.25;4934899;29;20051;-73
2022/06/05 11:17:33;;;;;;;3.60;1.33;;;;;;;23.42;43.65;100373.19;4934665;29;20042;-71
2022/06/05 11:20:12;;;;;;;2.50;1.63;;;;;;;23.72;43.20;100369.22;4943613;29;20024;-71
2022/06/05 11:22:48;;;;;;;3.25;2.38;;;;;;;23.87;42.90;100360.91;4935451;29;20106;-71
2022/06/05 11:25:23;;;;;;;2.85;1.75;;;;;;;24.02;42.58;100366.84;4927290;29;20063;-72
2022/06/05 11:28:13;;;;;;;2.70;2.00;;;;;;;24.25;42.12;100366.25;4945506;29;20027;-70
2022/06/05 11:31:02;;;;;;;2.05;1.58;;;;;;;24.67;42.28;100360.09;4934246;29;20509;-72
2022/06/05 11:33:35;;;;;;;2.30;1.50;;;;;;;25.12;41.46;100360.72;4936587;29;20067;-71
2022/06/05 11:36:26;;;;;;;1.50;1.27;;;;;;;25.24;40.51;100357.75;4929800;29;20035;-70
2022/06/05 11:39:15;;;;;;;3.10;1.80;;;;;;;24.67;41.07;100374.09;4934449;29;20060;-71
2022/06/05 11:41:48;;;;;;;4.53;2.92;;;;;;;23.58;41.77;100356.47;4936203;29;20039;-72
2022/06/05 11:44:57;;;;;;;2.63;1.73;;;;;;;23.37;43.26;100373.44;4939077;29;20046;-71
2022/06/05 11:47:50;;;;;;;3.92;2.83;;;;;;;23.13;43.36;100372.34;4883265;29;20060;-72
2022/06/05 11:50:35;;;;;;;3.40;2.47;;;;;;;22.98;44.08;100382.25;4885018;29;20122;-72
2022/06/05 11:53:28;;;;;;;3.92;2.50;;;;;;;23.00;43.47;100373.53;4931336;29;20099;-71
2022/06/05 11:56:15;;;;;;;2.10;1.80;;;;;;;23.22;43.55;100365.81;4923669;29;20036;-73
2022/06/05 11:59:03;;;;;;;3.38;1.85;;;;;;;23.76;43.32;100376.53;4928019;29;20023;-72
2022/06/05 12:01:35;;;;;;;3.60;2.30;;;;;;;24.15;42.02;100374.00;4923384;29;20115;-74
2022/06/05 12:04:49;;;;;;;4.88;2.35;;;;;;;24.05;42.46;100366.97;4926169;29;20031;-72
2022/06/05 12:07:15;;;;;;;3.58;2.17;;;;;;;23.85;42.05;100374.38;4935294;29;20028;-71
2022/06/05 12:10:08;;;;;;;3.08;2.22;;;;;;;23.48;42.43;100377.34;4923240;29;20023;-74
2022/06/05 12:12:42;;;;;;;2.58;1.80;;;;;;;22.97;43.84;100379.81;4917484;29;20031;-72